createdAt,value
2023-10-07T00:01:38.874Z,100863.88
2023-10-07T00:04:11.237Z,100869.94
2023-10-07T00:06:39.338Z,100863.88
2023-10-07T00:09:11.829Z,100868.31
2023-10-07T00:11:39.214Z,100858.78
2023-10-07T00:14:11.280Z,100855.63
2023-10-07T00:16:39.496Z,100851.97
2023-10-07T00:19:08.482Z,100852.78
2023-10-07T00:21:59.799Z,100859.47
2023-10-07T00:24:36.394Z,100851.81
2023-10-07T00:27:05.670Z,100849.25
2023-10-07T00:29:52.874Z,100850.56
2023-10-07T00:32:20.255Z,100842.72
2023-10-07T00:34:48.014Z,100845.59
2023-10-07T00:37:17.031Z,100843.22
2023-10-07T00:39:44.780Z,100834.50
2023-10-07T00:42:12.099Z,100833.38
2023-10-07T00:44:40.481Z,100830.69
2023-10-07T00:47:07.936Z,100828.00
2023-10-07T00:49:51.848Z,100823.72
2023-10-07T00:52:26.458Z,100811.50
2023-10-07T00:55:01.536Z,100825.78
2023-10-07T00:57:34.774Z,100819.41
2023-10-07T01:00:24.548Z,100810.22
2023-10-07T01:02:58.917Z,100807.19
2023-10-07T01:05:34.413Z,100804.16
2023-10-07T01:08:01.810Z,100803.06
2023-10-07T01:10:33.128Z,100801.31
2023-10-07T01:13:04.471Z,100807.50
2023-10-07T01:15:35.910Z,100801.44
2023-10-07T01:18:06.917Z,100802.06
2023-10-07T01:20:54.930Z,100801.75
2023-10-07T01:23:25.775Z,100802.38
2023-10-07T01:25:54.591Z,100784.50
2023-10-07T01:28:22.810Z,100781.47
2023-10-07T01:31:09.113Z,100779.44
2023-10-07T01:33:40.498Z,100783.38
2023-10-07T01:36:17.378Z,100778.81
2023-10-07T01:38:52.882Z,100777.50
2023-10-07T01:41:29.116Z,100778.31
2023-10-07T01:44:06.361Z,100769.28
2023-10-07T01:46:36.321Z,100772.72
2023-10-07T01:49:13.989Z,100777.19
2023-10-07T01:51:45.878Z,100779.09
2023-10-07T01:54:13.614Z,100775.91
2023-10-07T01:56:41.043Z,100767.84
2023-10-07T01:59:15.470Z,100769.09
2023-10-07T02:02:00.184Z,100778.13
2023-10-07T02:04:28.889Z,100769.56
2023-10-07T02:06:57.726Z,100763.88
2023-10-07T02:09:29.251Z,100758.31
2023-10-07T02:12:13.148Z,100755.44
2023-10-07T02:14:40.616Z,100755.28
2023-10-07T02:17:08.647Z,100748.31
2023-10-07T02:19:36.080Z,100745.75
2023-10-07T02:22:04.948Z,100737.03
2023-10-07T02:24:33.404Z,100739.22
2023-10-07T02:27:08.154Z,100739.22
2023-10-07T02:29:36.044Z,100738.44
2023-10-07T02:32:15.284Z,100744.94
2023-10-07T02:34:56.486Z,100730.03
2023-10-07T02:37:27.468Z,100726.72
2023-10-07T02:39:57.738Z,100725.47
2023-10-07T02:42:32.706Z,100730.34
2023-10-07T02:45:21.689Z,100730.84
2023-10-07T02:47:51.489Z,100724.84
2023-10-07T02:50:19.561Z,100730.72
2023-10-07T02:52:48.364Z,100718.81
2023-10-07T02:55:19.472Z,100719.44
2023-10-07T02:57:56.639Z,100710.88
2023-10-07T03:00:36.444Z,100701.84
2023-10-07T03:03:21.033Z,100698.19
2023-10-07T03:05:58.687Z,100696.63
2023-10-07T03:08:41.687Z,100702.00
2023-10-07T03:11:13.383Z,100702.78
2023-10-07T03:13:41.027Z,100711.66
2023-10-07T03:16:29.182Z,100706.44
2023-10-07T03:18:58.135Z,100700.25
2023-10-07T03:21:36.829Z,100688.66
2023-10-07T03:24:09.800Z,100697.25
2023-10-07T03:26:41.969Z,100698.19
2023-10-07T03:29:09.465Z,100694.69
2023-10-07T03:31:40.049Z,100691.38
2023-10-07T03:34:13.346Z,100699.44
2023-10-07T03:37:09.764Z,100712.78
2023-10-07T03:39:55.673Z,100706.59
2023-10-07T03:42:24.118Z,100705.97
2023-10-07T03:44:51.665Z,100703.41
2023-10-07T03:47:19.100Z,100711.34
2023-10-07T03:49:54.662Z,100707.53
2023-10-07T03:52:22.444Z,100695.81
2023-10-07T03:54:49.981Z,100699.94
2023-10-07T03:57:17.375Z,100694.69
2023-10-07T03:59:46.886Z,100690.72
2023-10-07T04:02:30.393Z,100689.78
2023-10-07T04:05:11.066Z,100686.13
2023-10-07T04:07:38.751Z,100695.31
2023-10-07T04:10:21.470Z,100689.28
2023-10-07T04:12:50.842Z,100692.47
2023-10-07T04:15:18.456Z,100687.09
2023-10-07T04:17:46.627Z,100679.63
2023-10-07T04:20:20.090Z,100678.03
2023-10-07T04:23:02.322Z,100670.13
2023-10-07T04:25:32.271Z,100672.00
2023-10-07T04:28:00.575Z,100663.31
2023-10-07T04:30:40.818Z,100660.63
2023-10-07T04:33:10.231Z,100653.22
2023-10-07T04:35:39.029Z,100645.28
2023-10-07T04:38:26.601Z,100657.63
2023-10-07T04:41:15.369Z,100651.63
2023-10-07T04:43:45.693Z,100639.13
2023-10-07T04:46:25.713Z,100641.66
2023-10-07T04:48:57.346Z,100642.13
2023-10-07T04:51:33.752Z,100645.78
2023-10-07T04:54:01.158Z,100649.09
2023-10-07T04:56:28.995Z,100635.63
2023-10-07T04:58:56.556Z,100645.31
2023-10-07T05:01:32.310Z,100642.78
2023-10-07T05:04:09.755Z,100638.03
2023-10-07T05:06:38.683Z,100624.41
2023-10-07T05:09:11.007Z,100638.69
2023-10-07T05:11:42.416Z,100624.09
2023-10-07T05:14:11.804Z,100625.50
2023-10-07T05:16:39.817Z,100624.56
2023-10-07T05:19:10.903Z,100625.03
2023-10-07T05:21:41.175Z,100621.88
2023-10-07T05:24:11.820Z,100620.13
2023-10-07T05:26:42.465Z,100614.41
2023-10-07T05:29:14.385Z,100617.09
2023-10-07T05:31:44.160Z,100620.88
2023-10-07T05:34:12.176Z,100625.78
2023-10-07T05:36:40.316Z,100629.88
2023-10-07T05:39:09.332Z,100631.09
2023-10-07T05:41:40.704Z,100630.59
2023-10-07T05:44:10.956Z,100646.13
2023-10-07T05:46:38.673Z,100642.91
2023-10-07T05:49:07.718Z,100646.53
2023-10-07T05:51:37.532Z,100638.41
2023-10-07T05:54:06.453Z,100640.69
2023-10-07T05:56:33.805Z,100641.56
2023-10-07T05:59:03.140Z,100646.38
2023-10-07T06:01:35.227Z,100650.63
2023-10-07T06:04:02.861Z,100644.03
2023-10-07T06:06:32.997Z,100641.91
2023-10-07T06:09:04.646Z,100640.19
2023-10-07T06:11:33.394Z,100635.41
2023-10-07T06:14:00.811Z,100647.84
2023-10-07T06:16:30.787Z,100651.13
2023-10-07T06:18:59.796Z,100650.53
2023-10-07T06:21:29.105Z,100651.75
2023-10-07T06:24:00.274Z,100658.69
2023-10-07T06:26:31.664Z,100654.38
2023-10-07T06:29:07.516Z,100654.63
2023-10-07T06:31:35.395Z,100650.00
2023-10-07T06:34:13.861Z,100653.94
2023-10-07T06:36:41.782Z,100654.41
2023-10-07T06:39:09.443Z,100649.66
2023-10-07T06:41:36.926Z,100649.66
2023-10-07T06:44:04.525Z,100642.97
2023-10-07T06:46:41.861Z,100640.59
2023-10-07T06:49:20.979Z,100626.38
2023-10-07T06:51:52.585Z,100629.34
2023-10-07T06:54:20.835Z,100626.84
2023-10-07T06:56:51.339Z,100623.44
2023-10-07T06:59:19.508Z,100613.63
2023-10-07T07:01:46.978Z,100615.41
2023-10-07T07:04:20.247Z,100607.81
2023-10-07T07:06:58.651Z,100604.69
2023-10-07T07:09:44.854Z,100614.25
2023-10-07T07:12:13.484Z,100601.66
2023-10-07T07:14:47.743Z,100601.16
2023-10-07T07:17:31.016Z,100596.81
2023-10-07T07:20:13.322Z,100605.78
2023-10-07T07:22:47.824Z,100607.75
2023-10-07T07:25:39.400Z,100614.94
2023-10-07T07:28:07.913Z,100604.63
2023-10-07T07:30:36.717Z,100607.88
2023-10-07T07:33:16.604Z,100599.47
2023-10-07T07:35:52.533Z,100609.09
2023-10-07T07:38:24.081Z,100611.94
2023-10-07T07:40:53.750Z,100621.41
2023-10-07T07:43:21.394Z,100626.19
2023-10-07T07:45:57.506Z,100620.72
2023-10-07T07:48:26.705Z,100608.28
2023-10-07T07:50:55.434Z,100611.69
2023-10-07T07:53:22.885Z,100616.97
2023-10-07T07:55:56.319Z,100619.50
2023-10-07T07:58:24.505Z,100618.34
2023-10-07T08:01:00.348Z,100604.25
2023-10-07T08:03:27.974Z,100599.50
2023-10-07T08:05:55.468Z,100599.06
2023-10-07T08:08:30.216Z,100602.03
2023-10-07T08:10:58.450Z,100601.03
2023-10-07T08:13:26.064Z,100601.38
2023-10-07T08:15:53.450Z,100595.00
2023-10-07T08:18:30.242Z,100595.63
2023-10-07T08:20:59.473Z,100589.91
2023-10-07T08:23:30.757Z,100580.34
2023-10-07T08:26:10.449Z,100580.72
2023-10-07T08:28:41.650Z,100574.75
2023-10-07T08:31:21.914Z,100574.97
2023-10-07T08:33:55.206Z,100572.56
2023-10-07T08:36:30.433Z,100561.69
2023-10-07T08:39:00.350Z,100558.59
2023-10-07T08:41:28.242Z,100562.31
2023-10-07T08:44:16.821Z,100544.31
2023-10-07T08:46:54.620Z,100533.63
2023-10-07T08:49:28.424Z,100533.38
2023-10-07T08:51:56.679Z,100518.22
2023-10-07T08:54:27.865Z,100526.16
2023-10-07T08:57:10.255Z,100524.31
2023-10-07T08:59:38.433Z,100520.88
2023-10-07T09:02:05.897Z,100524.13
2023-10-07T09:04:33.472Z,100522.56
2023-10-07T09:07:01.490Z,100509.28
2023-10-07T09:09:33.989Z,100507.34
2023-10-07T09:12:09.291Z,100521.06
2023-10-07T09:14:36.677Z,100524.19
2023-10-07T09:17:06.003Z,100512.03
2023-10-07T09:19:35.557Z,100519.09
2023-10-07T09:22:11.721Z,100526.16
2023-10-07T09:24:45.158Z,100521.84
2023-10-07T09:27:14.332Z,100527.72
2023-10-07T09:29:45.655Z,100513.97
2023-10-07T09:32:18.210Z,100521.00
2023-10-07T09:34:45.542Z,100517.84
2023-10-07T09:37:14.760Z,100512.72
2023-10-07T09:39:46.043Z,100515.50
2023-10-07T09:42:27.541Z,100514.75
2023-10-07T09:45:16.815Z,100522.97
2023-10-07T09:47:48.137Z,100523.38
2023-10-07T09:50:25.176Z,100513.56
2023-10-07T09:53:16.312Z,100517.88
2023-10-07T09:55:58.508Z,100510.03
2023-10-07T09:58:38.053Z,100492.41
2023-10-07T10:01:29.748Z,100508.47
2023-10-07T10:04:13.034Z,100502.16
2023-10-07T10:07:01.701Z,100497.00
2023-10-07T10:09:29.151Z,100491.69
2023-10-07T10:12:19.399Z,100490.84
2023-10-07T10:15:18.783Z,100483.72
2023-10-07T10:17:54.501Z,100474.88
2023-10-07T10:20:28.992Z,100472.50
2023-10-07T10:23:00.707Z,100477.97
2023-10-07T10:25:37.482Z,100473.53
2023-10-07T10:28:05.143Z,100464.47
2023-10-07T10:30:32.489Z,100458.91
2023-10-07T10:33:01.959Z,100465.13
2023-10-07T10:35:30.379Z,100468.25
2023-10-07T10:37:58.333Z,100458.09
2023-10-07T10:40:29.081Z,100449.56
2023-10-07T10:42:56.404Z,100450.09
2023-10-07T10:45:26.209Z,100446.50
2023-10-07T10:47:54.627Z,100451.19
2023-10-07T10:50:24.971Z,100441.44
2023-10-07T10:52:55.429Z,100441.25
2023-10-07T10:55:26.739Z,100430.81
2023-10-07T10:57:54.103Z,100430.53
2023-10-07T11:00:22.988Z,100425.06
2023-10-07T11:02:50.978Z,100429.47
2023-10-07T11:05:18.629Z,100421.63
2023-10-07T11:07:48.220Z,100419.22
2023-10-07T11:10:24.406Z,100414.47
2023-10-07T11:12:55.797Z,100416.66
2023-10-07T11:15:26.260Z,100410.16
2023-10-07T11:17:59.651Z,100412.25
2023-10-07T11:20:34.496Z,100414.84
2023-10-07T11:23:04.076Z,100411.09
2023-10-07T11:25:31.495Z,100404.34
2023-10-07T11:27:59.976Z,100413.22
2023-10-07T11:30:27.388Z,100393.31
2023-10-07T11:32:56.121Z,100390.66
2023-10-07T11:35:29.239Z,100396.41
2023-10-07T11:37:59.802Z,100379.34
2023-10-07T11:40:28.696Z,100377.47
2023-10-07T11:42:57.781Z,100372.91
2023-10-07T11:45:27.855Z,100366.47
2023-10-07T11:47:58.492Z,100379.88
2023-10-07T11:50:30.485Z,100378.13
2023-10-07T11:52:58.278Z,100367.56
2023-10-07T11:55:28.753Z,100366.72
2023-10-07T11:57:56.080Z,100360.34
2023-10-07T12:00:30.551Z,100350.50
2023-10-07T12:03:01.499Z,100355.09
2023-10-07T12:05:29.439Z,100355.28
2023-10-07T12:07:57.544Z,100353.72
2023-10-07T12:10:24.880Z,100348.56
2023-10-07T12:12:53.294Z,100334.97
2023-10-07T12:15:22.318Z,100339.91
2023-10-07T12:17:52.467Z,100343.94
2023-10-07T12:20:24.037Z,100349.34
2023-10-07T12:22:54.301Z,100347.66
2023-10-07T12:25:22.883Z,100348.22
2023-10-07T12:27:50.717Z,100354.72
2023-10-07T12:30:24.153Z,100347.78
2023-10-07T12:32:51.560Z,100342.88
2023-10-07T12:35:19.814Z,100342.88
2023-10-07T12:37:50.097Z,100347.31
2023-10-07T12:40:21.534Z,100340.44
2023-10-07T12:42:53.389Z,100342.63
2023-10-07T12:45:20.976Z,100329.56
2023-10-07T12:47:52.768Z,100343.94
2023-10-07T12:50:21.966Z,100347.78
2023-10-07T12:52:50.064Z,100331.28
2023-10-07T12:55:17.640Z,100335.31
2023-10-07T12:57:45.379Z,100330.09
2023-10-07T13:00:33.229Z,100325.97
2023-10-07T13:03:03.472Z,100329.72
2023-10-07T13:05:34.099Z,100330.53
2023-10-07T13:08:01.419Z,100328.59
2023-10-07T13:10:30.651Z,100321.59
2023-10-07T13:12:59.292Z,100317.13
2023-10-07T13:15:35.220Z,100308.94
2023-10-07T13:18:03.854Z,100310.69
2023-10-07T13:20:31.815Z,100310.56
2023-10-07T13:22:59.517Z,100297.59
2023-10-07T13:25:27.649Z,100309.19
2023-10-07T13:27:59.177Z,100321.72
2023-10-07T13:30:26.476Z,100323.28
2023-10-07T13:32:58.250Z,100313.81
2023-10-07T13:35:28.875Z,100297.66
2023-10-07T13:37:58.216Z,100317.75
2023-10-07T13:40:25.589Z,100307.31
2023-10-07T13:42:54.079Z,100310.97
2023-10-07T13:45:25.024Z,100307.47
2023-10-07T13:47:52.952Z,100300.75
2023-10-07T13:50:26.852Z,100304.84
2023-10-07T13:53:00.580Z,100307.53
2023-10-07T13:55:55.682Z,100316.63
2023-10-07T13:58:23.127Z,100302.47
2023-10-07T14:00:53.410Z,100301.66
2023-10-07T14:03:22.324Z,100300.00
2023-10-07T14:05:52.180Z,100298.56
2023-10-07T14:08:25.294Z,100292.19
2023-10-07T14:10:53.760Z,100288.06
2023-10-07T14:13:21.253Z,100292.31
2023-10-07T14:15:51.558Z,100286.09
2023-10-07T14:18:22.852Z,100278.44
2023-10-07T14:20:57.576Z,100273.38
2023-10-07T14:23:25.590Z,100283.13
2023-10-07T14:25:54.218Z,100276.59
2023-10-07T14:28:22.229Z,100276.00
2023-10-07T14:30:50.360Z,100278.81
2023-10-07T14:33:18.127Z,100281.84
2023-10-07T14:35:46.425Z,100277.19
2023-10-07T14:38:14.199Z,100271.13
2023-10-07T14:40:51.928Z,100254.09
2023-10-07T14:43:20.245Z,100267.13
2023-10-07T14:45:48.535Z,100264.91
2023-10-07T14:48:17.210Z,100253.28
2023-10-07T14:50:44.749Z,100256.50
2023-10-07T14:53:14.881Z,100249.47
2023-10-07T14:55:45.861Z,100249.47
2023-10-07T14:58:16.413Z,100254.28
2023-10-07T15:00:47.541Z,100252.00
2023-10-07T15:03:18.170Z,100254.50
2023-10-07T15:05:45.716Z,100255.81
2023-10-07T15:08:14.428Z,100250.88
2023-10-07T15:10:45.416Z,100263.34
2023-10-07T15:13:13.009Z,100250.78
2023-10-07T15:15:40.892Z,100258.69
2023-10-07T15:18:08.250Z,100267.72
2023-10-07T15:20:35.773Z,100268.22
2023-10-07T15:23:03.586Z,100258.88
2023-10-07T15:25:32.226Z,100269.16
2023-10-07T15:27:59.588Z,100273.16
2023-10-07T15:30:29.686Z,100266.59
2023-10-07T15:32:57.029Z,100274.09
2023-10-07T15:35:24.586Z,100265.88
2023-10-07T15:37:52.812Z,100261.63
2023-10-07T15:40:20.126Z,100272.25
2023-10-07T15:42:50.055Z,100271.88
2023-10-07T15:45:17.410Z,100273.50
2023-10-07T15:47:45.042Z,100269.25
2023-10-07T15:50:12.501Z,100276.34
2023-10-07T15:52:41.071Z,100273.66
2023-10-07T15:55:08.718Z,100268.19
2023-10-07T15:57:36.185Z,100262.69
2023-10-07T16:00:13.538Z,100261.13
2023-10-07T16:02:41.196Z,100268.19
2023-10-07T16:05:09.061Z,100271.69
2023-10-07T16:07:39.545Z,100256.41
2023-10-07T16:10:14.039Z,100250.16
2023-10-07T16:12:42.832Z,100259.13
2023-10-07T16:15:10.655Z,100268.16
2023-10-07T16:17:41.561Z,100258.78
2023-10-07T16:20:11.282Z,100256.44
2023-10-07T16:22:38.893Z,100258.78
2023-10-07T16:25:09.959Z,100266.63
2023-10-07T16:27:37.309Z,100262.28
2023-10-07T16:30:06.945Z,100263.50
2023-10-07T16:32:34.687Z,100264.31
2023-10-07T16:35:04.915Z,100256.13
2023-10-07T16:37:33.267Z,100258.06
2023-10-07T16:40:00.576Z,100258.88
2023-10-07T16:42:29.452Z,100261.16
2023-10-07T16:44:57.056Z,100254.50
2023-10-07T16:47:24.670Z,100256.47
2023-10-07T16:49:52.132Z,100259.59
2023-10-07T16:52:20.001Z,100253.38
2023-10-07T16:54:47.303Z,100260.41
2023-10-07T16:57:14.746Z,100264.28
2023-10-07T16:59:42.271Z,100249.81
2023-10-07T17:02:11.889Z,100256.06
2023-10-07T17:04:40.613Z,100244.72
2023-10-07T17:07:07.987Z,100243.94
2023-10-07T17:09:35.702Z,100241.22
2023-10-07T17:12:03.206Z,100242.41
2023-10-07T17:14:33.078Z,100245.53
2023-10-07T17:17:00.716Z,100236.16
2023-10-07T17:19:29.286Z,100222.88
2023-10-07T17:21:56.649Z,100226.00
2023-10-07T17:24:24.040Z,100222.50
2023-10-07T17:26:51.808Z,100218.59
2023-10-07T17:29:19.171Z,100226.81
2023-10-07T17:31:46.531Z,100228.38
2023-10-07T17:34:13.872Z,100226.41
2023-10-07T17:36:41.179Z,100228.34
2023-10-07T17:39:12.515Z,100215.84
2023-10-07T17:41:40.287Z,100227.94
2023-10-07T17:44:09.499Z,100215.81
2023-10-07T17:46:36.892Z,100209.56
2023-10-07T17:49:04.204Z,100202.13
2023-10-07T17:51:31.498Z,100196.66
2023-10-07T17:53:58.893Z,100192.75
2023-10-07T17:56:26.372Z,100196.25
2023-10-07T17:58:53.745Z,100200.97
2023-10-07T18:01:21.031Z,100201.31
2023-10-07T18:03:49.124Z,100204.03
2023-10-07T18:06:16.481Z,100208.72
2023-10-07T18:08:44.520Z,100211.09
2023-10-07T18:11:12.799Z,100203.25
2023-10-07T18:13:40.243Z,100207.16
2023-10-07T18:16:08.484Z,100208.75
2023-10-07T18:18:38.270Z,100200.19
2023-10-07T18:21:07.169Z,100195.88
2023-10-07T18:23:38.077Z,100201.72
2023-10-07T18:26:05.557Z,100204.78
2023-10-07T18:28:33.049Z,100199.72
2023-10-07T18:31:02.628Z,100208.69
2023-10-07T18:33:30.410Z,100201.63
2023-10-07T18:35:58.856Z,100184.00
2023-10-07T18:38:26.859Z,100182.47
2023-10-07T18:40:54.192Z,100175.03
2023-10-07T18:43:21.468Z,100172.69
2023-10-07T18:45:53.481Z,100177.38
2023-10-07T18:48:20.863Z,100161.72
2023-10-07T18:50:49.324Z,100164.81
2023-10-07T18:53:16.783Z,100162.47
2023-10-07T18:55:44.089Z,100163.22
2023-10-07T18:58:13.604Z,100166.00
2023-10-07T19:00:40.916Z,100161.69
2023-10-07T19:03:08.412Z,100160.88
2023-10-07T19:05:35.909Z,100150.38
2023-10-07T19:08:03.357Z,100152.72
2023-10-07T19:10:31.414Z,100158.97
2023-10-07T19:13:00.205Z,100145.16
2023-10-07T19:15:28.604Z,100141.25
2023-10-07T19:17:56.161Z,100148.28
2023-10-07T19:20:24.790Z,100149.84
2023-10-07T19:22:52.211Z,100137.38
2023-10-07T19:25:19.581Z,100142.88
2023-10-07T19:27:46.968Z,100146.81
2023-10-07T19:30:15.262Z,100148.41
2023-10-07T19:32:43.427Z,100146.44
2023-10-07T19:35:11.782Z,100136.72
2023-10-07T19:37:39.877Z,100136.72
2023-10-07T19:40:08.064Z,100126.56
2023-10-07T19:42:35.441Z,100128.84
2023-10-07T19:45:02.829Z,100125.72
2023-10-07T19:47:30.235Z,100119.44
2023-10-07T19:49:57.651Z,100119.88
2023-10-07T19:52:24.969Z,100114.41
2023-10-07T19:54:53.499Z,100102.28
2023-10-07T19:57:21.264Z,100106.63
2023-10-07T19:59:48.909Z,100107.81
2023-10-07T20:02:17.279Z,100101.53
2023-10-07T20:04:45.753Z,100098.31
2023-10-07T20:07:14.709Z,100091.22
2023-10-07T20:09:42.181Z,100087.69
2023-10-07T20:12:10.513Z,100074.84
2023-10-07T20:14:37.957Z,100095.16
2023-10-07T20:17:05.631Z,100086.59
2023-10-07T20:19:33.122Z,100081.13
2023-10-07T20:22:00.438Z,100079.25
2023-10-07T20:24:27.791Z,100070.22
2023-10-07T20:26:55.313Z,100076.50
2023-10-07T20:29:22.664Z,100076.50
2023-10-07T20:31:50.034Z,100081.88
2023-10-07T20:34:17.823Z,100061.50
2023-10-07T20:36:45.090Z,100059.91
2023-10-07T20:39:12.796Z,100062.63
2023-10-07T20:41:41.795Z,100057.56
2023-10-07T20:44:09.340Z,100053.28
2023-10-07T20:46:36.940Z,100069.38
2023-10-07T20:49:04.854Z,100041.34
2023-10-07T20:51:32.167Z,100039.88
2023-10-07T20:54:00.802Z,100038.69
2023-10-07T20:56:28.495Z,100055.53
2023-10-07T20:58:55.870Z,100060.22
2023-10-07T21:01:24.963Z,100052.75
2023-10-07T21:03:53.888Z,100056.28
2023-10-07T21:06:21.834Z,100056.91
2023-10-07T21:08:51.475Z,100048.72
2023-10-07T21:11:22.271Z,100037.25
2023-10-07T21:13:49.994Z,100036.03
2023-10-07T21:16:17.501Z,100028.06
2023-10-07T21:18:46.076Z,100028.06
2023-10-07T21:21:14.049Z,100018.97
2023-10-07T21:23:44.563Z,100009.19
2023-10-07T21:26:17.820Z,100000.59
2023-10-07T21:28:45.365Z,99994.59
2023-10-07T21:31:12.760Z,99984.06
2023-10-07T21:33:40.051Z,99972.78
2023-10-07T21:36:07.947Z,99966.88
2023-10-07T21:38:36.119Z,99979.06
2023-10-07T21:41:03.828Z,99982.16
2023-10-07T21:43:31.275Z,99976.00
2023-10-07T21:46:00.035Z,99981.81
2023-10-07T21:48:27.547Z,99981.47
2023-10-07T21:50:55.254Z,99975.91
2023-10-07T21:53:23.260Z,99974.47
2023-10-07T21:55:50.583Z,99968.13
2023-10-07T21:58:17.902Z,99964.38
2023-10-07T22:00:47.209Z,99967.59
2023-10-07T22:03:17.761Z,99953.50
2023-10-07T22:05:47.816Z,99964.06
2023-10-07T22:08:15.976Z,99963.66
2023-10-07T22:10:45.488Z,99956.56
2023-10-07T22:13:18.972Z,99955.03
2023-10-07T22:15:53.232Z,99959.69
2023-10-07T22:18:20.968Z,99961.72
2023-10-07T22:20:50.910Z,99960.50
2023-10-07T22:23:20.731Z,99962.88
2023-10-07T22:25:51.991Z,99973.06
2023-10-07T22:28:22.664Z,99957.06
2023-10-07T22:30:56.877Z,99959.03
2023-10-07T22:33:26.475Z,99950.50
2023-10-07T22:36:00.829Z,99950.91
2023-10-07T22:38:28.340Z,99956.72
2023-10-07T22:40:59.734Z,99941.16
2023-10-07T22:43:36.140Z,99953.66
2023-10-07T22:46:05.260Z,99942.31
2023-10-07T22:48:36.523Z,99943.50
2023-10-07T22:51:24.592Z,99947.38
2023-10-07T22:54:02.317Z,99949.66
2023-10-07T22:56:32.834Z,99947.78
2023-10-07T22:59:05.871Z,99938.78
2023-10-07T23:01:36.845Z,99948.59
2023-10-07T23:04:34.005Z,99948.19
2023-10-07T23:07:01.720Z,99940.34
2023-10-07T23:09:37.477Z,99938.41
2023-10-07T23:12:16.366Z,99932.63
2023-10-07T23:14:46.148Z,99940.53
2023-10-07T23:17:23.085Z,99942.06
2023-10-07T23:19:51.875Z,99942.41
2023-10-07T23:22:21.975Z,99928.78
2023-10-07T23:24:53.605Z,99929.91
2023-10-07T23:27:24.033Z,99931.88
2023-10-07T23:29:56.355Z,99920.91
2023-10-07T23:32:23.929Z,99922.88
2023-10-07T23:34:54.795Z,99920.81
2023-10-07T23:37:25.900Z,99916.09
2023-10-07T23:39:58.618Z,99914.59
2023-10-07T23:42:26.575Z,99902.91
2023-10-07T23:44:57.573Z,99903.69
2023-10-07T23:47:25.074Z,99906.84
2023-10-07T23:49:56.053Z,99903.69
2023-10-07T23:52:26.744Z,99906.09
2023-10-07T23:55:00.292Z,99903.75
2023-10-07T23:57:31.230Z,99913.22
2023-10-07T23:59:59.191Z,99904.25
